sensor_id;sensor_type;location;lat;lon;timestamp;temperature;humidity
5041;DHT22;2539;52.568;13.364;2023-11-22T00:00:08;0.50;99.90
5041;DHT22;2539;52.568;13.364;2023-11-22T00:02:36;0.50;99.90
5041;DHT22;2539;52.568;13.364;2023-11-22T00:05:02;0.50;99.90
5041;DHT22;2539;52.568;13.364;2023-11-22T00:07:29;0.50;99.90
5041;DHT22;2539;52.568;13.364;2023-11-22T00:09:56;0.40;99.90
5041;DHT22;2539;52.568;13.364;2023-11-22T00:12:22;0.40;99.90
5041;DHT22;2539;52.568;13.364;2023-11-22T00:14:52;0.40;99.90
5041;DHT22;2539;52.568;13.364;2023-11-22T00:17:18;0.40;99.90
5041;DHT22;2539;52.568;13.364;2023-11-22T00:19:45;0.40;99.90
5041;DHT22;2539;52.568;13.364;2023-11-22T00:22:11;0.40;99.90
5041;DHT22;2539;52.568;13.364;2023-11-22T00:24:41;0.40;99.90
5041;DHT22;2539;52.568;13.364;2023-11-22T00:27:08;0.40;99.90
5041;DHT22;2539;52.568;13.364;2023-11-22T00:29:34;0.40;99.90
5041;DHT22;2539;52.568;13.364;2023-11-22T00:32:00;0.50;99.90
5041;DHT22;2539;52.568;13.364;2023-11-22T00:34:27;0.50;99.90
5041;DHT22;2539;52.568;13.364;2023-11-22T00:36:53;0.50;99.90
5041;DHT22;2539;52.568;13.364;2023-11-22T00:39:19;0.40;99.90
5041;DHT22;2539;52.568;13.364;2023-11-22T00:41:45;0.40;99.90
5041;DHT22;2539;52.568;13.364;2023-11-22T00:44:12;0.30;99.90
5041;DHT22;2539;52.568;13.364;2023-11-22T00:46:38;0.20;99.90
5041;DHT22;2539;52.568;13.364;2023-11-22T00:49:04;0.20;99.90
5041;DHT22;2539;52.568;13.364;2023-11-22T00:51:30;0.10;99.90
5041;DHT22;2539;52.568;13.364;2023-11-22T00:53:57;0.60;99.90
5041;DHT22;2539;52.568;13.364;2023-11-22T00:56:24;0.10;99.90
5041;DHT22;2539;52.568;13.364;2023-11-22T00:58:50;0.00;99.90
5041;DHT22;2539;52.568;13.364;2023-11-22T01:01:17;-0.10;99.90
5041;DHT22;2539;52.568;13.364;2023-11-22T01:03:53;-0.10;99.90
5041;DHT22;2539;52.568;13.364;2023-11-22T01:06:19;-0.20;99.90
5041;DHT22;2539;52.568;13.364;2023-11-22T01:08:46;-0.20;99.90
5041;DHT22;2539;52.568;13.364;2023-11-22T01:11:18;-0.20;99.90
5041;DHT22;2539;52.568;13.364;2023-11-22T01:13:44;-0.30;99.90
5041;DHT22;2539;52.568;13.364;2023-11-22T01:16:11;-0.30;99.90
5041;DHT22;2539;52.568;13.364;2023-11-22T01:18:37;-0.40;99.90
5041;DHT22;2539;52.568;13.364;2023-11-22T01:21:06;-0.40;99.90
5041;DHT22;2539;52.568;13.364;2023-11-22T01:23:32;-0.40;99.90
5041;DHT22;2539;52.568;13.364;2023-11-22T01:25:59;-0.90;99.90
5041;DHT22;2539;52.568;13.364;2023-11-22T01:28:28;-0.50;99.90
5041;DHT22;2539;52.568;13.364;2023-11-22T01:30:55;-0.50;99.90
5041;DHT22;2539;52.568;13.364;2023-11-22T01:33:22;-0.60;99.90
5041;DHT22;2539;52.568;13.364;2023-11-22T01:35:49;-0.60;99.90
5041;DHT22;2539;52.568;13.364;2023-11-22T01:38:18;-0.60;99.90
5041;DHT22;2539;52.568;13.364;2023-11-22T01:40:48;-0.60;99.90
5041;DHT22;2539;52.568;13.364;2023-11-22T01:43:18;-0.70;99.90
5041;DHT22;2539;52.568;13.364;2023-11-22T01:45:45;-0.70;99.90
5041;DHT22;2539;52.568;13.364;2023-11-22T01:48:12;-0.80;99.90
5041;DHT22;2539;52.568;13.364;2023-11-22T01:50:39;-0.80;99.90
5041;DHT22;2539;52.568;13.364;2023-11-22T01:53:07;-0.80;99.90
5041;DHT22;2539;52.568;13.364;2023-11-22T01:55:34;-0.80;99.90
5041;DHT22;2539;52.568;13.364;2023-11-22T01:58:00;-0.60;99.90
5041;DHT22;2539;52.568;13.364;2023-11-22T02:00:33;-0.80;99.90
5041;DHT22;2539;52.568;13.364;2023-11-22T02:03:02;-0.80;99.90
5041;DHT22;2539;52.568;13.364;2023-11-22T02:05:28;-0.90;99.90
5041;DHT22;2539;52.568;13.364;2023-11-22T02:07:55;-0.90;99.90
5041;DHT22;2539;52.568;13.364;2023-11-22T02:10:21;-0.90;99.90
5041;DHT22;2539;52.568;13.364;2023-11-22T02:12:50;-0.90;99.90
5041;DHT22;2539;52.568;13.364;2023-11-22T02:15:16;-0.90;99.90
5041;DHT22;2539;52.568;13.364;2023-11-22T02:17:42;-0.90;99.90
5041;DHT22;2539;52.568;13.364;2023-11-22T02:20:10;-1.00;99.90
5041;DHT22;2539;52.568;13.364;2023-11-22T02:22:44;-1.00;99.90
5041;DHT22;2539;52.568;13.364;2023-11-22T02:25:12;-1.00;99.90
5041;DHT22;2539;52.568;13.364;2023-11-22T02:27:38;-1.00;99.90
5041;DHT22;2539;52.568;13.364;2023-11-22T02:30:06;-1.00;99.90
5041;DHT22;2539;52.568;13.364;2023-11-22T02:32:32;-1.10;99.90
5041;DHT22;2539;52.568;13.364;2023-11-22T02:34:59;-1.10;99.90
5041;DHT22;2539;52.568;13.364;2023-11-22T02:37:25;-1.10;99.90
5041;DHT22;2539;52.568;13.364;2023-11-22T02:42:30;-1.10;99.90
5041;DHT22;2539;52.568;13.364;2023-11-22T02:44:56;-1.10;99.90
5041;DHT22;2539;52.568;13.364;2023-11-22T02:47:22;-1.20;99.90
5041;DHT22;2539;52.568;13.364;2023-11-22T02:49:48;-1.20;99.90
5041;DHT22;2539;52.568;13.364;2023-11-22T02:52:14;-1.20;99.90
5041;DHT22;2539;52.568;13.364;2023-11-22T02:54:43;-1.30;99.90
5041;DHT22;2539;52.568;13.364;2023-11-22T02:57:11;-1.30;99.90
5041;DHT22;2539;52.568;13.364;2023-11-22T02:59:41;-1.30;99.90
5041;DHT22;2539;52.568;13.364;2023-11-22T03:02:07;-1.30;99.90
5041;DHT22;2539;52.568;13.364;2023-11-22T03:04:33;-1.30;99.90
5041;DHT22;2539;52.568;13.364;2023-11-22T03:07:00;-1.30;99.90
5041;DHT22;2539;52.568;13.364;2023-11-22T03:09:26;-1.30;99.90
5041;DHT22;2539;52.568;13.364;2023-11-22T03:11:54;-1.30;99.90
5041;DHT22;2539;52.568;13.364;2023-11-22T03:14:20;-1.30;99.90
5041;DHT22;2539;52.568;13.364;2023-11-22T03:16:48;-1.30;99.90
5041;DHT22;2539;52.568;13.364;2023-11-22T03:19:14;-1.30;99.90
5041;DHT22;2539;52.568;13.364;2023-11-22T03:21:41;-1.30;99.90
5041;DHT22;2539;52.568;13.364;2023-11-22T03:24:08;-1.40;99.90
5041;DHT22;2539;52.568;13.364;2023-11-22T03:26:34;-1.30;99.90
5041;DHT22;2539;52.568;13.364;2023-11-22T03:29:01;-1.40;99.90
5041;DHT22;2539;52.568;13.364;2023-11-22T03:31:28;-1.40;99.90
5041;DHT22;2539;52.568;13.364;2023-11-22T03:33:56;-1.40;99.90
5041;DHT22;2539;52.568;13.364;2023-11-22T03:36:23;-1.40;99.90
5041;DHT22;2539;52.568;13.364;2023-11-22T03:38:50;-1.50;99.90
5041;DHT22;2539;52.568;13.364;2023-11-22T03:41:17;-1.40;99.90
5041;DHT22;2539;52.568;13.364;2023-11-22T03:43:43;-1.50;99.90
5041;DHT22;2539;52.568;13.364;2023-11-22T03:46:10;-1.50;99.90
5041;DHT22;2539;52.568;13.364;2023-11-22T03:48:37;-1.50;99.90
5041;DHT22;2539;52.568;13.364;2023-11-22T03:51:03;-1.50;99.90
5041;DHT22;2539;52.568;13.364;2023-11-22T03:53:30;-1.60;99.90
5041;DHT22;2539;52.568;13.364;2023-11-22T03:55:56;-1.50;99.90
5041;DHT22;2539;52.568;13.364;2023-11-22T03:58:22;-1.60;99.90
5041;DHT22;2539;52.568;13.364;2023-11-22T04:00:49;-1.60;99.90
5041;DHT22;2539;52.568;13.364;2023-11-22T04:03:17;-1.60;99.90
5041;DHT22;2539;52.568;13.364;2023-11-22T04:05:44;-1.60;99.90
5041;DHT22;2539;52.568;13.364;2023-11-22T04:08:10;-1.60;99.90
5041;DHT22;2539;52.568;13.364;2023-11-22T04:10:36;-1.60;99.90
5041;DHT22;2539;52.568;13.364;2023-11-22T04:13:02;-1.50;99.90
5041;DHT22;2539;52.568;13.364;2023-11-22T04:15:28;-1.50;99.90
5041;DHT22;2539;52.568;13.364;2023-11-22T04:17:54;-1.60;99.90
5041;DHT22;2539;52.568;13.364;2023-11-22T04:20:21;-1.60;99.90
5041;DHT22;2539;52.568;13.364;2023-11-22T04:22:47;-1.60;99.90
5041;DHT22;2539;52.568;13.364;2023-11-22T04:25:12;-1.60;99.90
5041;DHT22;2539;52.568;13.364;2023-11-22T04:27:41;-1.70;99.90
5041;DHT22;2539;52.568;13.364;2023-11-22T04:30:08;-1.70;99.90
5041;DHT22;2539;52.568;13.364;2023-11-22T04:32:36;-1.70;99.90
5041;DHT22;2539;52.568;13.364;2023-11-22T04:35:02;-1.70;99.90
5041;DHT22;2539;52.568;13.364;2023-11-22T04:37:32;-1.70;99.90
5041;DHT22;2539;52.568;13.364;2023-11-22T04:39:58;-1.80;99.90
5041;DHT22;2539;52.568;13.364;2023-11-22T04:42:24;-1.80;99.90
5041;DHT22;2539;52.568;13.364;2023-11-22T04:44:49;-1.80;99.90
5041;DHT22;2539;52.568;13.364;2023-11-22T04:47:15;-1.80;99.90
5041;DHT22;2539;52.568;13.364;2023-11-22T04:49:41;-1.90;99.90
5041;DHT22;2539;52.568;13.364;2023-11-22T04:52:08;-1.90;99.90
5041;DHT22;2539;52.568;13.364;2023-11-22T04:54:34;-1.90;99.90
5041;DHT22;2539;52.568;13.364;2023-11-22T04:57:00;-1.90;99.90
5041;DHT22;2539;52.568;13.364;2023-11-22T04:59:26;-1.90;99.90
5041;DHT22;2539;52.568;13.364;2023-11-22T05:01:53;-1.90;99.90
5041;DHT22;2539;52.568;13.364;2023-11-22T05:04:18;-1.90;99.90
5041;DHT22;2539;52.568;13.364;2023-11-22T05:06:44;-1.90;99.90
5041;DHT22;2539;52.568;13.364;2023-11-22T05:09:11;-2.00;99.90
5041;DHT22;2539;52.568;13.364;2023-11-22T05:11:39;-1.90;99.90
5041;DHT22;2539;52.568;13.364;2023-11-22T05:14:07;-2.00;99.90
5041;DHT22;2539;52.568;13.364;2023-11-22T05:16:33;-2.00;99.90
5041;DHT22;2539;52.568;13.364;2023-11-22T05:19:00;-2.00;99.90
5041;DHT22;2539;52.568;13.364;2023-11-22T05:21:26;-2.00;99.90
5041;DHT22;2539;52.568;13.364;2023-11-22T05:23:53;-2.00;99.90
5041;DHT22;2539;52.568;13.364;2023-11-22T05:26:21;-2.10;99.90
5041;DHT22;2539;52.568;13.364;2023-11-22T05:28:48;-2.10;99.90
5041;DHT22;2539;52.568;13.364;2023-11-22T05:31:14;-2.10;99.90
5041;DHT22;2539;52.568;13.364;2023-11-22T05:33:40;-2.20;99.90
5041;DHT22;2539;52.568;13.364;2023-11-22T05:36:07;-1.60;99.90
5041;DHT22;2539;52.568;13.364;2023-11-22T05:38:34;-2.10;99.90
5041;DHT22;2539;52.568;13.364;2023-11-22T05:41:01;-2.20;99.90
5041;DHT22;2539;52.568;13.364;2023-11-22T05:43:27;-2.20;99.90
5041;DHT22;2539;52.568;13.364;2023-11-22T05:45:53;-2.20;99.90
5041;DHT22;2539;52.568;13.364;2023-11-22T05:48:19;-2.10;99.90
5041;DHT22;2539;52.568;13.364;2023-11-22T05:50:45;-2.10;99.90
5041;DHT22;2539;52.568;13.364;2023-11-22T05:53:13;-2.20;99.90
5041;DHT22;2539;52.568;13.364;2023-11-22T05:55:46;-2.20;99.90
5041;DHT22;2539;52.568;13.364;2023-11-22T05:58:16;-2.20;99.90
5041;DHT22;2539;52.568;13.364;2023-11-22T06:00:46;-2.20;99.90
5041;DHT22;2539;52.568;13.364;2023-11-22T06:03:13;-2.20;99.90
5041;DHT22;2539;52.568;13.364;2023-11-22T06:05:40;-2.20;99.90
5041;DHT22;2539;52.568;13.364;2023-11-22T06:08:06;-2.20;99.90
5041;DHT22;2539;52.568;13.364;2023-11-22T06:10:32;-1.80;99.90
5041;DHT22;2539;52.568;13.364;2023-11-22T06:12:59;-2.30;99.90
5041;DHT22;2539;52.568;13.364;2023-11-22T06:15:26;-2.30;99.90
5041;DHT22;2539;52.568;13.364;2023-11-22T06:17:52;-2.30;99.90
5041;DHT22;2539;52.568;13.364;2023-11-22T06:20:18;-2.30;99.90
5041;DHT22;2539;52.568;13.364;2023-11-22T06:22:45;-2.30;99.90
5041;DHT22;2539;52.568;13.364;2023-11-22T06:25:12;-2.30;99.90
5041;DHT22;2539;52.568;13.364;2023-11-22T06:27:38;-2.30;99.90
5041;DHT22;2539;52.568;13.364;2023-11-22T06:30:05;-2.30;99.90
5041;DHT22;2539;52.568;13.364;2023-11-22T06:32:37;-2.30;99.90
5041;DHT22;2539;52.568;13.364;2023-11-22T06:35:04;-2.30;99.90
5041;DHT22;2539;52.568;13.364;2023-11-22T06:37:32;-2.30;99.90
5041;DHT22;2539;52.568;13.364;2023-11-22T06:39:58;-2.20;99.90
5041;DHT22;2539;52.568;13.364;2023-11-22T06:42:24;-2.20;99.90
5041;DHT22;2539;52.568;13.364;2023-11-22T06:44:51;-2.30;99.90
5041;DHT22;2539;52.568;13.364;2023-11-22T06:47:22;-2.30;99.90
5041;DHT22;2539;52.568;13.364;2023-11-22T06:49:48;-2.20;99.90
5041;DHT22;2539;52.568;13.364;2023-11-22T06:52:15;-2.20;99.90
5041;DHT22;2539;52.568;13.364;2023-11-22T06:54:43;-2.20;99.90
5041;DHT22;2539;52.568;13.364;2023-11-22T06:57:09;-2.20;99.90
5041;DHT22;2539;52.568;13.364;2023-11-22T06:59:36;-2.20;99.90
5041;DHT22;2539;52.568;13.364;2023-11-22T07:02:04;-2.20;99.90
5041;DHT22;2539;52.568;13.364;2023-11-22T07:04:31;-2.20;99.90
5041;DHT22;2539;52.568;13.364;2023-11-22T07:06:58;-2.10;99.90
5041;DHT22;2539;52.568;13.364;2023-11-22T07:09:24;-2.10;99.90
5041;DHT22;2539;52.568;13.364;2023-11-22T07:11:51;-2.10;99.90
5041;DHT22;2539;52.568;13.364;2023-11-22T07:14:18;-2.00;99.90
5041;DHT22;2539;52.568;13.364;2023-11-22T07:16:45;-2.00;99.90
5041;DHT22;2539;52.568;13.364;2023-11-22T07:19:12;-1.90;99.90
5041;DHT22;2539;52.568;13.364;2023-11-22T07:21:38;-2.00;99.90
5041;DHT22;2539;52.568;13.364;2023-11-22T07:24:06;-1.90;99.90
5041;DHT22;2539;52.568;13.364;2023-11-22T07:26:35;-1.90;99.90
5041;DHT22;2539;52.568;13.364;2023-11-22T07:29:03;-1.80;99.90
5041;DHT22;2539;52.568;13.364;2023-11-22T07:31:29;-1.70;99.90
5041;DHT22;2539;52.568;13.364;2023-11-22T07:33:55;-1.70;99.90
5041;DHT22;2539;52.568;13.364;2023-11-22T07:36:22;-1.60;99.90
5041;DHT22;2539;52.568;13.364;2023-11-22T07:38:48;-1.60;99.90
5041;DHT22;2539;52.568;13.364;2023-11-22T07:41:14;-1.50;99.90
5041;DHT22;2539;52.568;13.364;2023-11-22T07:43:40;-1.50;99.90
5041;DHT22;2539;52.568;13.364;2023-11-22T07:46:07;-1.50;99.90
5041;DHT22;2539;52.568;13.364;2023-11-22T07:48:38;-1.50;99.90
5041;DHT22;2539;52.568;13.364;2023-11-22T07:51:06;-1.50;99.90
5041;DHT22;2539;52.568;13.364;2023-11-22T07:53:33;-1.40;99.90
5041;DHT22;2539;52.568;13.364;2023-11-22T07:56:03;-1.30;99.90
5041;DHT22;2539;52.568;13.364;2023-11-22T07:58:30;-1.20;99.90
5041;DHT22;2539;52.568;13.364;2023-11-22T08:00:58;-1.20;99.90
5041;DHT22;2539;52.568;13.364;2023-11-22T08:03:28;-1.20;99.90
5041;DHT22;2539;52.568;13.364;2023-11-22T08:05:54;-1.10;99.90
5041;DHT22;2539;52.568;13.364;2023-11-22T08:08:22;-1.10;99.90
5041;DHT22;2539;52.568;13.364;2023-11-22T08:10:50;-1.10;99.90
5041;DHT22;2539;52.568;13.364;2023-11-22T08:13:22;-1.10;99.90
5041;DHT22;2539;52.568;13.364;2023-11-22T08:15:49;-1.00;99.90
5041;DHT22;2539;52.568;13.364;2023-11-22T08:18:15;-1.00;99.90
5041;DHT22;2539;52.568;13.364;2023-11-22T08:20:43;-1.00;99.90
5041;DHT22;2539;52.568;13.364;2023-11-22T08:23:10;-1.00;99.90
5041;DHT22;2539;52.568;13.364;2023-11-22T08:25:38;-0.90;99.90
5041;DHT22;2539;52.568;13.364;2023-11-22T08:28:04;-0.40;99.90
5041;DHT22;2539;52.568;13.364;2023-11-22T08:30:34;-0.80;99.90
5041;DHT22;2539;52.568;13.364;2023-11-22T08:33:03;-0.70;99.90
5041;DHT22;2539;52.568;13.364;2023-11-22T08:35:28;-0.60;99.90
5041;DHT22;2539;52.568;13.364;2023-11-22T08:37:54;-0.50;99.90
5041;DHT22;2539;52.568;13.364;2023-11-22T08:40:23;-0.50;99.90
5041;DHT22;2539;52.568;13.364;2023-11-22T08:42:49;-0.40;99.90
5041;DHT22;2539;52.568;13.364;2023-11-22T08:45:16;-0.30;99.90
5041;DHT22;2539;52.568;13.364;2023-11-22T08:47:42;-0.20;99.90
5041;DHT22;2539;52.568;13.364;2023-11-22T08:50:08;-0.20;99.90
5041;DHT22;2539;52.568;13.364;2023-11-22T08:52:37;-0.20;99.90
5041;DHT22;2539;52.568;13.364;2023-11-22T08:55:07;-0.10;99.90
5041;DHT22;2539;52.568;13.364;2023-11-22T08:57:37;0.00;99.90
5041;DHT22;2539;52.568;13.364;2023-11-22T09:00:07;0.10;99.90
5041;DHT22;2539;52.568;13.364;2023-11-22T09:02:35;0.20;99.90
5041;DHT22;2539;52.568;13.364;2023-11-22T09:05:03;0.30;99.90
5041;DHT22;2539;52.568;13.364;2023-11-22T09:07:35;0.20;99.90
5041;DHT22;2539;52.568;13.364;2023-11-22T09:10:05;0.30;99.90
5041;DHT22;2539;52.568;13.364;2023-11-22T09:12:42;0.30;99.90
5041;DHT22;2539;52.568;13.364;2023-11-22T09:15:12;0.40;99.90
5041;DHT22;2539;52.568;13.364;2023-11-22T09:17:43;0.50;99.90
5041;DHT22;2539;52.568;13.364;2023-11-22T09:20:12;0.60;99.90
5041;DHT22;2539;52.568;13.364;2023-11-22T09:22:43;0.50;99.90
5041;DHT22;2539;52.568;13.364;2023-11-22T09:25:21;0.60;99.90
5041;DHT22;2539;52.568;13.364;2023-11-22T09:27:48;0.60;99.90
5041;DHT22;2539;52.568;13.364;2023-11-22T09:30:20;0.60;99.90
5041;DHT22;2539;52.568;13.364;2023-11-22T09:33:03;0.70;99.90
5041;DHT22;2539;52.568;13.364;2023-11-22T09:35:30;1.00;99.90
5041;DHT22;2539;52.568;13.364;2023-11-22T09:38:00;1.00;99.90
5041;DHT22;2539;52.568;13.364;2023-11-22T09:40:27;1.00;99.90
5041;DHT22;2539;52.568;13.364;2023-11-22T09:42:56;1.00;99.90
5041;DHT22;2539;52.568;13.364;2023-11-22T09:45:24;1.10;99.90
5041;DHT22;2539;52.568;13.364;2023-11-22T09:47:51;1.50;99.90
5041;DHT22;2539;52.568;13.364;2023-11-22T09:50:23;1.80;99.90
5041;DHT22;2539;52.568;13.364;2023-11-22T09:52:52;1.90;99.90
5041;DHT22;2539;52.568;13.364;2023-11-22T09:55:27;1.90;99.90
5041;DHT22;2539;52.568;13.364;2023-11-22T09:57:54;1.70;99.90
5041;DHT22;2539;52.568;13.364;2023-11-22T10:00:21;1.60;99.90
5041;DHT22;2539;52.568;13.364;2023-11-22T10:02:47;1.60;99.90
5041;DHT22;2539;52.568;13.364;2023-11-22T10:05:14;1.60;99.90
5041;DHT22;2539;52.568;13.364;2023-11-22T10:07:40;1.60;99.90
5041;DHT22;2539;52.568;13.364;2023-11-22T10:10:07;1.70;99.90
5041;DHT22;2539;52.568;13.364;2023-11-22T10:12:36;1.70;99.90
5041;DHT22;2539;52.568;13.364;2023-11-22T10:15:13;1.90;99.90
5041;DHT22;2539;52.568;13.364;2023-11-22T10:17:40;2.00;99.90
5041;DHT22;2539;52.568;13.364;2023-11-22T10:20:08;1.90;99.90
5041;DHT22;2539;52.568;13.364;2023-11-22T10:22:44;1.90;99.90
5041;DHT22;2539;52.568;13.364;2023-11-22T10:25:17;1.90;99.90
5041;DHT22;2539;52.568;13.364;2023-11-22T10:27:45;2.00;99.90
5041;DHT22;2539;52.568;13.364;2023-11-22T10:30:13;2.00;99.90
5041;DHT22;2539;52.568;13.364;2023-11-22T10:32:41;2.00;99.90
5041;DHT22;2539;52.568;13.364;2023-11-22T10:35:08;2.10;99.90
5041;DHT22;2539;52.568;13.364;2023-11-22T10:37:36;2.20;99.90
5041;DHT22;2539;52.568;13.364;2023-11-22T10:40:03;2.30;99.90
5041;DHT22;2539;52.568;13.364;2023-11-22T10:42:33;2.20;99.90
5041;DHT22;2539;52.568;13.364;2023-11-22T10:45:00;2.20;99.90
5041;DHT22;2539;52.568;13.364;2023-11-22T10:47:30;2.20;99.90
5041;DHT22;2539;52.568;13.364;2023-11-22T10:49:57;2.20;99.90
5041;DHT22;2539;52.568;13.364;2023-11-22T10:52:26;2.20;99.90
5041;DHT22;2539;52.568;13.364;2023-11-22T10:54:59;2.20;99.90
5041;DHT22;2539;52.568;13.364;2023-11-22T10:57:36;2.20;99.90
5041;DHT22;2539;52.568;13.364;2023-11-22T11:00:06;2.20;99.90
5041;DHT22;2539;52.568;13.364;2023-11-22T11:02:45;2.30;99.90
5041;DHT22;2539;52.568;13.364;2023-11-22T11:05:17;2.30;99.90
5041;DHT22;2539;52.568;13.364;2023-11-22T11:07:49;2.40;99.90
5041;DHT22;2539;52.568;13.364;2023-11-22T11:10:21;2.50;99.90
5041;DHT22;2539;52.568;13.364;2023-11-22T11:12:48;2.50;99.90
5041;DHT22;2539;52.568;13.364;2023-11-22T11:15:15;2.60;99.90
5041;DHT22;2539;52.568;13.364;2023-11-22T11:17:43;2.60;99.90
5041;DHT22;2539;52.568;13.364;2023-11-22T11:20:16;2.60;99.90
5041;DHT22;2539;52.568;13.364;2023-11-22T11:22:44;2.60;99.90
5041;DHT22;2539;52.568;13.364;2023-11-22T11:25:17;2.60;99.90
5041;DHT22;2539;52.568;13.364;2023-11-22T11:27:56;2.50;99.90
5041;DHT22;2539;52.568;13.364;2023-11-22T11:33:01;2.30;99.90
5041;DHT22;2539;52.568;13.364;2023-11-22T11:35:49;2.30;99.90
5041;DHT22;2539;52.568;13.364;2023-11-22T11:38:19;2.30;99.90
5041;DHT22;2539;52.568;13.364;2023-11-22T11:40:50;2.50;99.90
5041;DHT22;2539;52.568;13.364;2023-11-22T11:43:48;2.50;99.90
5041;DHT22;2539;52.568;13.364;2023-11-22T11:46:16;2.60;99.90
5041;DHT22;2539;52.568;13.364;2023-11-22T11:48:52;2.70;99.90
5041;DHT22;2539;52.568;13.364;2023-11-22T11:51:24;2.70;99.90
5041;DHT22;2539;52.568;13.364;2023-11-22T11:53:52;2.80;99.90
5041;DHT22;2539;52.568;13.364;2023-11-22T11:56:19;2.80;99.90
5041;DHT22;2539;52.568;13.364;2023-11-22T11:58:47;2.80;99.90
5041;DHT22;2539;52.568;13.364;2023-11-22T12:01:16;2.80;99.90
5041;DHT22;2539;52.568;13.364;2023-11-22T12:03:43;2.80;99.90
5041;DHT22;2539;52.568;13.364;2023-11-22T12:06:10;2.80;99.90
5041;DHT22;2539;52.568;13.364;2023-11-22T12:08:37;2.90;99.90
5041;DHT22;2539;52.568;13.364;2023-11-22T12:11:04;2.90;99.90
5041;DHT22;2539;52.568;13.364;2023-11-22T12:13:31;2.90;99.90
5041;DHT22;2539;52.568;13.364;2023-11-22T12:15:57;3.00;99.90
5041;DHT22;2539;52.568;13.364;2023-11-22T12:18:24;3.00;99.90
5041;DHT22;2539;52.568;13.364;2023-11-22T12:20:55;3.10;99.90
5041;DHT22;2539;52.568;13.364;2023-11-22T12:23:24;3.00;99.90
5041;DHT22;2539;52.568;13.364;2023-11-22T12:25:56;3.20;99.90
5041;DHT22;2539;52.568;13.364;2023-11-22T12:28:24;3.20;99.90
5041;DHT22;2539;52.568;13.364;2023-11-22T12:30:52;3.20;99.90
5041;DHT22;2539;52.568;13.364;2023-11-22T12:33:20;3.10;99.90
5041;DHT22;2539;52.568;13.364;2023-11-22T12:35:47;3.10;99.90
5041;DHT22;2539;52.568;13.364;2023-11-22T12:38:15;3.20;99.90
5041;DHT22;2539;52.568;13.364;2023-11-22T12:40:46;3.30;99.90
5041;DHT22;2539;52.568;13.364;2023-11-22T12:43:15;3.40;99.90
5041;DHT22;2539;52.568;13.364;2023-11-22T12:45:41;3.40;99.90
5041;DHT22;2539;52.568;13.364;2023-11-22T12:48:22;3.50;99.90
5041;DHT22;2539;52.568;13.364;2023-11-22T12:50:54;3.50;99.90
5041;DHT22;2539;52.568;13.364;2023-11-22T12:53:21;3.40;99.90
5041;DHT22;2539;52.568;13.364;2023-11-22T12:55:49;3.50;99.90
5041;DHT22;2539;52.568;13.364;2023-11-22T12:58:17;3.50;99.90
5041;DHT22;2539;52.568;13.364;2023-11-22T13:00:45;3.50;99.90
5041;DHT22;2539;52.568;13.364;2023-11-22T13:03:12;3.50;99.90
5041;DHT22;2539;52.568;13.364;2023-11-22T13:05:40;3.50;99.90
5041;DHT22;2539;52.568;13.364;2023-11-22T13:08:09;3.50;99.90
5041;DHT22;2539;52.568;13.364;2023-11-22T13:10:49;3.50;99.90
5041;DHT22;2539;52.568;13.364;2023-11-22T13:13:24;3.40;99.90
5041;DHT22;2539;52.568;13.364;2023-11-22T13:15:51;3.40;99.90
5041;DHT22;2539;52.568;13.364;2023-11-22T13:18:18;3.40;99.90
5041;DHT22;2539;52.568;13.364;2023-11-22T13:20:45;3.30;99.90
5041;DHT22;2539;52.568;13.364;2023-11-22T13:23:11;3.20;99.90
5041;DHT22;2539;52.568;13.364;2023-11-22T13:25:40;3.20;99.90
5041;DHT22;2539;52.568;13.364;2023-11-22T13:28:10;3.30;99.90
5041;DHT22;2539;52.568;13.364;2023-11-22T13:30:36;3.20;99.90
5041;DHT22;2539;52.568;13.364;2023-11-22T13:33:03;3.20;99.90
5041;DHT22;2539;52.568;13.364;2023-11-22T13:35:30;3.30;99.90
5041;DHT22;2539;52.568;13.364;2023-11-22T13:37:58;3.20;99.90
5041;DHT22;2539;52.568;13.364;2023-11-22T13:40:28;3.20;99.90
5041;DHT22;2539;52.568;13.364;2023-11-22T13:42:58;3.20;99.90
5041;DHT22;2539;52.568;13.364;2023-11-22T13:45:24;3.20;99.90
5041;DHT22;2539;52.568;13.364;2023-11-22T13:47:51;3.10;99.90
5041;DHT22;2539;52.568;13.364;2023-11-22T13:50:20;3.10;99.90
5041;DHT22;2539;52.568;13.364;2023-11-22T13:52:52;3.10;99.90
5041;DHT22;2539;52.568;13.364;2023-11-22T13:55:19;3.10;99.90
5041;DHT22;2539;52.568;13.364;2023-11-22T13:57:55;3.00;99.90
5041;DHT22;2539;52.568;13.364;2023-11-22T14:00:23;3.00;99.90
5041;DHT22;2539;52.568;13.364;2023-11-22T14:02:52;2.90;99.90
5041;DHT22;2539;52.568;13.364;2023-11-22T14:05:19;2.90;99.90
5041;DHT22;2539;52.568;13.364;2023-11-22T14:07:45;2.80;99.90
5041;DHT22;2539;52.568;13.364;2023-11-22T14:10:12;2.80;99.90
5041;DHT22;2539;52.568;13.364;2023-11-22T14:12:43;2.80;99.90
5041;DHT22;2539;52.568;13.364;2023-11-22T14:15:11;2.70;99.90
5041;DHT22;2539;52.568;13.364;2023-11-22T14:17:37;2.70;99.90
5041;DHT22;2539;52.568;13.364;2023-11-22T14:20:06;3.10;99.90
5041;DHT22;2539;52.568;13.364;2023-11-22T14:22:35;2.70;99.90
5041;DHT22;2539;52.568;13.364;2023-11-22T14:25:02;2.60;99.90
5041;DHT22;2539;52.568;13.364;2023-11-22T14:27:28;2.60;99.90
5041;DHT22;2539;52.568;13.364;2023-11-22T14:30:00;2.50;99.90
5041;DHT22;2539;52.568;13.364;2023-11-22T14:32:28;2.50;99.90
5041;DHT22;2539;52.568;13.364;2023-11-22T14:34:55;2.40;99.90
5041;DHT22;2539;52.568;13.364;2023-11-22T14:37:21;2.40;99.90
5041;DHT22;2539;52.568;13.364;2023-11-22T14:39:47;2.40;99.90
5041;DHT22;2539;52.568;13.364;2023-11-22T14:42:14;2.30;99.90
5041;DHT22;2539;52.568;13.364;2023-11-22T14:44:41;2.30;99.90
5041;DHT22;2539;52.568;13.364;2023-11-22T14:47:08;2.20;99.90
5041;DHT22;2539;52.568;13.364;2023-11-22T14:49:41;2.20;99.90
5041;DHT22;2539;52.568;13.364;2023-11-22T14:52:08;2.30;99.90
5041;DHT22;2539;52.568;13.364;2023-11-22T14:54:36;2.10;99.90
5041;DHT22;2539;52.568;13.364;2023-11-22T14:57:03;2.10;99.90
5041;DHT22;2539;52.568;13.364;2023-11-22T14:59:29;2.10;99.90
5041;DHT22;2539;52.568;13.364;2023-11-22T15:01:56;2.10;99.90
5041;DHT22;2539;52.568;13.364;2023-11-22T15:04:23;2.10;99.90
5041;DHT22;2539;52.568;13.364;2023-11-22T15:06:50;2.10;99.90
5041;DHT22;2539;52.568;13.364;2023-11-22T15:09:16;2.90;99.90
5041;DHT22;2539;52.568;13.364;2023-11-22T15:11:43;2.10;99.90
5041;DHT22;2539;52.568;13.364;2023-11-22T15:14:09;2.20;99.90
5041;DHT22;2539;52.568;13.364;2023-11-22T15:16:35;2.20;99.90
5041;DHT22;2539;52.568;13.364;2023-11-22T15:19:02;2.10;99.90
5041;DHT22;2539;52.568;13.364;2023-11-22T15:21:29;2.20;99.90
5041;DHT22;2539;52.568;13.364;2023-11-22T15:23:55;2.10;99.90
5041;DHT22;2539;52.568;13.364;2023-11-22T15:26:24;2.10;99.90
5041;DHT22;2539;52.568;13.364;2023-11-22T15:28:53;2.10;99.90
5041;DHT22;2539;52.568;13.364;2023-11-22T15:31:19;2.10;99.90
5041;DHT22;2539;52.568;13.364;2023-11-22T15:33:45;2.10;99.90
5041;DHT22;2539;52.568;13.364;2023-11-22T15:36:12;2.10;99.90
5041;DHT22;2539;52.568;13.364;2023-11-22T15:38:38;2.00;99.90
5041;DHT22;2539;52.568;13.364;2023-11-22T15:41:05;2.00;99.90
5041;DHT22;2539;52.568;13.364;2023-11-22T15:43:31;2.00;99.90
5041;DHT22;2539;52.568;13.364;2023-11-22T15:45:58;1.90;99.90
5041;DHT22;2539;52.568;13.364;2023-11-22T15:48:24;2.00;99.90
5041;DHT22;2539;52.568;13.364;2023-11-22T15:50:54;2.00;99.90
5041;DHT22;2539;52.568;13.364;2023-11-22T15:53:21;2.00;99.90
5041;DHT22;2539;52.568;13.364;2023-11-22T15:55:47;2.00;99.90
5041;DHT22;2539;52.568;13.364;2023-11-22T15:58:14;1.90;99.90
5041;DHT22;2539;52.568;13.364;2023-11-22T16:00:40;1.90;99.90
5041;DHT22;2539;52.568;13.364;2023-11-22T16:03:06;1.90;99.90